メインページ
METAR-TAF:

METAR-TAF

空港 :

グラン・カナリア島, スペイン

グラン・カナリア空港

緯度: 27-56N, 経度: 015-23W, 海抜: 23m

現時点の気象観測

当レポートは10分前の01:30(UTC)に作成
北/北西の風 13kt、北西からの間で変化する
気温 17°C
湿度 77%
気圧 1021 hPa
視程10km以上
高度3000ftの雲はほとんどない
高度4000ftの雲は散在している

METAR: GCLP 180130Z 34013KT 310V010 9999 FEW030 SCT040 17/13 Q1021 NOSIG

時間: 01:40 (01:40 UTC)

予報

当レポートは37分前の01:03(UTC)に作成
予報は18日の 01時(UTC)から 18日の 21時(UTC)まで有効
の風 14kt
視程10km以上
高度3000ftの雲は散在している

TAF: GCLP 180103Z 1801/1821 36014KT 9999 SCT030 TX21/1814Z TN16/1806Z

4,000以上の空港の気象観測と天気予報(METAR報とTAF報)

利用可能な観測所は地図上に黄色い丸と赤い丸で示す。

丸の上にカーソルを重ねると観測所名を参照できる。

次にクリックすると気象観測と天気予報を参照できる。

マップの切り替え:黒色「×」印の緑ボタンをクリックして拡大、「-」印の緑ボタンをクリックして縮小、緑色の三角印をクリックして隣りの地図に切り替え


METAR-TAF: